Time;durP1;ratioP1;P1;durP2;ratioP2;P2;SDS_P1;SDS_P2;PMS_P1;PMS_P2;Temp;Humidity;BMP_temperature;BMP_pressure;BME280_temperature;BME280_humidity;BME280_pressure;Samples;Min_cycle;Max_cycle;Signal;HPM_P1;HPM_P2
2022/06/14 00:00:56;;;;;;;1.90;1.67;;;;;;;;;;5043955;28;20319;-63
2022/06/14 00:03:45;;;;;;;1.87;1.73;;;;;;;;;;5043286;28;20208;-63
2022/06/14 00:06:34;;;;;;;3.60;1.87;;;;;;;;;;5038389;28;20566;-63
2022/06/14 00:09:21;;;;;;;2.23;1.83;;;;;;;;;;5048584;28;20204;-64
2022/06/14 00:12:08;;;;;;;2.47;1.70;;;;;;;;;;5043759;28;20201;-63
2022/06/14 00:14:57;;;;;;;2.27;1.97;;;;;;;;;;5044261;28;20204;-63
2022/06/14 00:17:45;;;;;;;3.03;1.67;;;;;;;;;;5036648;28;20237;-63
2022/06/14 00:20:32;;;;;;;3.13;1.70;;;;;;;;;;5045228;28;20216;-64
2022/06/14 00:23:21;;;;;;;2.53;1.77;;;;;;;;;;5035119;28;20204;-64
2022/06/14 00:26:09;;;;;;;2.97;1.97;;;;;;;;;;5036814;28;20219;-63
2022/06/14 00:28:56;;;;;;;3.43;1.90;;;;;;;;;;5040249;28;20686;-64
2022/06/14 00:31:43;;;;;;;2.63;1.70;;;;;;;;;;5037785;28;20212;-64
2022/06/14 00:34:31;;;;;;;3.67;1.73;;;;;;;;;;5044107;28;20236;-63
2022/06/14 00:37:20;;;;;;;2.67;1.93;;;;;;;;;;5037902;28;20274;-63
2022/06/14 00:40:09;;;;;;;2.07;1.53;;;;;;;;;;5037298;28;20215;-63
2022/06/14 00:42:57;;;;;;;2.07;1.40;;;;;;;;;;5040864;28;20211;-63
2022/06/14 00:46:17;;;;;;;2.33;1.53;;;;;;;;;;5043503;28;20211;-64
2022/06/14 00:49:07;;;;;;;3.67;1.90;;;;;;;;;;5041435;28;20235;-63
2022/06/14 00:52:01;;;;;;;1.70;1.60;;;;;;;;;;5038541;28;20276;-64
2022/06/14 00:54:54;;;;;;;2.43;1.70;;;;;;;;;;5043333;28;20238;-63
2022/06/14 00:57:43;;;;;;;2.47;1.70;;;;;;;;;;5037417;28;20204;-64
2022/06/14 01:00:34;;;;;;;2.50;1.73;;;;;;;;;;5035321;28;20307;-64
2022/06/14 01:03:26;;;;;;;2.93;2.00;;;;;;;;;;5040812;28;20240;-63
2022/06/14 01:06:19;;;;;;;1.77;1.60;;;;;;;;;;5039856;28;20798;-63
2022/06/14 01:09:10;;;;;;;2.73;1.50;;;;;;;;;;5038981;28;20205;-64
2022/06/14 01:12:02;;;;;;;2.03;1.60;;;;;;;;;;5039949;28;20196;-63
2022/06/14 01:14:56;;;;;;;1.93;1.60;;;;;;;;;;5039816;28;20211;-63
2022/06/14 01:17:49;;;;;;;2.07;1.60;;;;;;;;;;5033829;28;20295;-63
2022/06/14 01:20:37;;;;;;;2.23;1.47;;;;;;;;;;5037804;28;20207;-63
2022/06/14 01:23:25;;;;;;;2.43;1.60;;;;;;;;;;5040642;28;20293;-70
2022/06/14 01:26:16;;;;;;;2.47;1.63;;;;;;;;;;5041327;28;20207;-63
2022/06/14 01:29:05;;;;;;;2.30;1.23;;;;;;;;;;5038309;28;20232;-63
2022/06/14 01:31:55;;;;;;;2.67;1.50;;;;;;;;;;5038924;28;20208;-63
2022/06/14 01:34:45;;;;;;;2.50;1.43;;;;;;;;;;5036510;28;20200;-63
2022/06/14 01:37:33;;;;;;;1.80;1.30;;;;;;;;;;5035352;28;20264;-64
2022/06/14 01:40:26;;;;;;;2.63;1.80;;;;;;;;;;5038422;28;20222;-63
2022/06/14 01:43:31;;;;;;;2.33;1.77;;;;;;;;;;5034818;28;20573;-63
2022/06/14 01:46:23;;;;;;;2.80;1.67;;;;;;;;;;5036537;28;20361;-64
2022/06/14 01:52:33;;;;;;;2.30;1.60;;;;;;;;;;5022124;28;20201;-63
2022/06/14 01:55:28;;;;;;;2.40;1.60;;;;;;;;;;5041037;28;20577;-63
2022/06/14 01:58:22;;;;;;;2.57;1.63;;;;;;;;;;5038074;28;20228;-63
2022/06/14 02:01:16;;;;;;;2.03;1.57;;;;;;;;;;5040088;28;20231;-63
2022/06/14 02:07:24;;;;;;;2.33;1.60;;;;;;;;;;5043062;28;20238;-63
2022/06/14 02:10:17;;;;;;;1.50;1.40;;;;;;;;;;5035897;28;20326;-63
2022/06/14 02:13:10;;;;;;;2.17;1.60;;;;;;;;;;5037856;28;20616;-64
2022/06/14 02:16:09;;;;;;;1.53;1.43;;;;;;;;;;5040314;28;20286;-63
2022/06/14 02:19:02;;;;;;;2.27;1.63;;;;;;;;;;5041171;28;20306;-63
2022/06/14 02:21:53;;;;;;;3.43;1.57;;;;;;;;;;5042351;28;20295;-64
2022/06/14 02:24:44;;;;;;;1.60;1.50;;;;;;;;;;5043880;28;20619;-63
2022/06/14 02:27:37;;;;;;;2.30;1.73;;;;;;;;;;5041922;28;21378;-63
2022/06/14 02:30:30;;;;;;;3.07;1.97;;;;;;;;;;5038721;28;20200;-63
2022/06/14 02:33:22;;;;;;;1.47;1.33;;;;;;;;;;5042186;28;20207;-63
2022/06/14 02:36:12;;;;;;;1.57;1.20;;;;;;;;;;5040009;28;20537;-64
2022/06/14 02:39:06;;;;;;;1.87;1.27;;;;;;;;;;5041765;28;20311;-63
2022/06/14 02:42:01;;;;;;;2.63;1.90;;;;;;;;;;5038620;28;20219;-63
2022/06/14 02:44:54;;;;;;;1.77;1.60;;;;;;;;;;5044199;28;20233;-63
2022/06/14 02:47:47;;;;;;;3.00;1.50;;;;;;;;;;5036968;28;20323;-64
2022/06/14 02:50:39;;;;;;;2.30;1.70;;;;;;;;;;5044474;28;20641;-63
2022/06/14 02:53:31;;;;;;;2.07;1.50;;;;;;;;;;5037813;28;20381;-63
2022/06/14 02:56:22;;;;;;;1.70;1.40;;;;;;;;;;5040363;28;20676;-64
2022/06/14 02:59:14;;;;;;;1.83;1.50;;;;;;;;;;5043682;28;20303;-63
2022/06/14 03:02:04;;;;;;;2.87;1.67;;;;;;;;;;5040418;28;20239;-64
2022/06/14 03:05:00;;;;;;;1.63;1.30;;;;;;;;;;5038312;28;20212;-64
2022/06/14 03:07:51;;;;;;;2.13;1.23;;;;;;;;;;5043548;28;20250;-63
2022/06/14 03:10:46;;;;;;;1.93;1.40;;;;;;;;;;5039215;28;20656;-62
2022/06/14 03:13:39;;;;;;;1.90;1.50;;;;;;;;;;5040445;28;20220;-64
2022/06/14 03:16:32;;;;;;;1.93;1.40;;;;;;;;;;5041863;28;20216;-63
2022/06/14 03:19:23;;;;;;;2.30;1.47;;;;;;;;;;5042812;28;20223;-63
2022/06/14 03:22:19;;;;;;;3.13;1.70;;;;;;;;;;5040203;28;20223;-63
2022/06/14 03:25:15;;;;;;;2.63;1.37;;;;;;;;;;5038683;28;20680;-64
2022/06/14 03:28:06;;;;;;;1.90;1.33;;;;;;;;;;5040977;28;20237;-64
2022/06/14 03:31:02;;;;;;;2.27;1.50;;;;;;;;;;5040309;28;20249;-64
2022/06/14 03:33:55;;;;;;;1.77;1.50;;;;;;;;;;5039941;28;20219;-63
2022/06/14 03:36:42;;;;;;;1.97;1.40;;;;;;;;;;5040762;28;20200;-64
2022/06/14 03:39:35;;;;;;;3.10;1.53;;;;;;;;;;5033974;28;20233;-64
2022/06/14 03:42:22;;;;;;;1.97;1.53;;;;;;;;;;5040217;28;20574;-63
2022/06/14 03:45:12;;;;;;;1.67;1.13;;;;;;;;;;5041527;28;20232;-64
2022/06/14 03:47:58;;;;;;;2.30;1.53;;;;;;;;;;5036806;28;20208;-63
2022/06/14 03:50:56;;;;;;;1.57;1.30;;;;;;;;;;5039375;28;20208;-63
2022/06/14 03:54:00;;;;;;;1.90;1.20;;;;;;;;;;5036134;28;20200;-64
2022/06/14 03:57:02;;;;;;;1.30;1.20;;;;;;;;;;5041732;28;20220;-64
2022/06/14 04:00:09;;;;;;;2.17;1.50;;;;;;;;;;5037580;28;20310;-63
2022/06/14 04:03:12;;;;;;;2.73;1.60;;;;;;;;;;5042149;28;20200;-63
2022/06/14 04:06:13;;;;;;;1.60;1.50;;;;;;;;;;5041298;28;20198;-63
2022/06/14 04:09:12;;;;;;;2.33;1.20;;;;;;;;;;5042782;28;20857;-63
2022/06/14 04:12:12;;;;;;;2.23;1.47;;;;;;;;;;5037845;28;20237;-63
2022/06/14 04:15:12;;;;;;;1.80;1.30;;;;;;;;;;5039996;28;20244;-63
2022/06/14 04:21:25;;;;;;;2.70;1.40;;;;;;;;;;5036044;28;20637;-61
2022/06/14 04:24:20;;;;;;;2.27;1.37;;;;;;;;;;5042741;28;20208;-61
2022/06/14 04:27:15;;;;;;;1.97;1.27;;;;;;;;;;5035877;28;20212;-61
2022/06/14 04:30:07;;;;;;;2.57;1.70;;;;;;;;;;5016808;28;20292;-63
2022/06/14 04:33:00;;;;;;;1.70;1.60;;;;;;;;;;5022067;28;20552;-64
2022/06/14 04:35:50;;;;;;;1.97;1.43;;;;;;;;;;5022997;28;20257;-64
2022/06/14 04:38:43;;;;;;;1.57;1.47;;;;;;;;;;5023977;28;20223;-64
2022/06/14 04:41:32;;;;;;;1.50;1.20;;;;;;;;;;5017467;28;20254;-63
2022/06/14 04:44:25;;;;;;;2.43;1.47;;;;;;;;;;5018005;28;20735;-63
2022/06/14 04:47:16;;;;;;;2.07;1.60;;;;;;;;;;5019906;28;20731;-62
2022/06/14 04:50:12;;;;;;;2.10;1.50;;;;;;;;;;5019632;28;20204;-61
2022/06/14 04:53:04;;;;;;;1.80;1.20;;;;;;;;;;5015435;28;20208;-61
2022/06/14 04:55:58;;;;;;;1.53;1.30;;;;;;;;;;5017127;28;20253;-61
2022/06/14 04:58:52;;;;;;;2.43;1.70;;;;;;;;;;5020161;28;20590;-61
2022/06/14 05:01:46;;;;;;;2.47;1.20;;;;;;;;;;5016634;28;20227;-60
2022/06/14 05:04:38;;;;;;;1.70;1.40;;;;;;;;;;5021379;28;20630;-63
2022/06/14 05:07:31;;;;;;;1.53;1.23;;;;;;;;;;5020571;28;20645;-63
2022/06/14 05:10:23;;;;;;;1.73;1.30;;;;;;;;;;5018371;28;20623;-63
2022/06/14 05:13:15;;;;;;;2.43;1.60;;;;;;;;;;5019065;28;20213;-63
2022/06/14 05:16:07;;;;;;;1.53;1.43;;;;;;;;;;5017291;28;20232;-63
2022/06/14 05:19:03;;;;;;;1.70;1.40;;;;;;;;;;5022116;28;20576;-63
2022/06/14 05:21:55;;;;;;;1.77;1.40;;;;;;;;;;5021805;28;20263;-63
2022/06/14 05:24:42;;;;;;;2.10;1.30;;;;;;;;;;5014739;28;20222;-63
2022/06/14 05:27:45;;;;;;;1.30;1.20;;;;;;;;;;5018331;28;20272;-63
2022/06/14 05:30:40;;;;;;;2.33;1.57;;;;;;;;;;5041965;28;20818;-62
2022/06/14 05:33:37;;;;;;;1.97;1.33;;;;;;;;;;5038052;28;20316;-63
2022/06/14 05:36:30;;;;;;;1.87;1.20;;;;;;;;;;5038092;28;20209;-63
2022/06/14 05:39:24;;;;;;;2.50;1.63;;;;;;;;;;5037795;28;20276;-61
2022/06/14 05:42:21;;;;;;;2.10;1.23;;;;;;;;;;5039260;28;20209;-61
2022/06/14 05:45:12;;;;;;;2.13;1.57;;;;;;;;;;5034215;28;20213;-61
2022/06/14 05:48:05;;;;;;;1.50;1.40;;;;;;;;;;5040705;28;20241;-62
2022/06/14 05:50:55;;;;;;;1.97;1.60;;;;;;;;;;5038067;28;20569;-63
2022/06/14 05:53:47;;;;;;;1.40;1.20;;;;;;;;;;5043111;28;20214;-63
2022/06/14 05:56:39;;;;;;;1.43;1.30;;;;;;;;;;5041327;28;20218;-63
2022/06/14 05:59:34;;;;;;;1.37;1.20;;;;;;;;;;5044462;28;20252;-63
2022/06/14 06:02:26;;;;;;;1.97;1.30;;;;;;;;;;5039825;28;20305;-63
2022/06/14 06:05:18;;;;;;;3.07;1.40;;;;;;;;;;5044030;28;20675;-63
2022/06/14 06:08:10;;;;;;;1.53;1.27;;;;;;;;;;5046075;28;20223;-63
2022/06/14 06:11:04;;;;;;;2.20;1.37;;;;;;;;;;5038529;28;20250;-63
2022/06/14 06:13:56;;;;;;;1.33;1.20;;;;;;;;;;5047318;28;20335;-63
2022/06/14 06:16:46;;;;;;;1.73;1.17;;;;;;;;;;5046155;28;20241;-63
2022/06/14 06:19:39;;;;;;;1.50;1.40;;;;;;;;;;5044039;28;20316;-63
2022/06/14 06:22:32;;;;;;;1.40;1.30;;;;;;;;;;5041708;28;20205;-63
2022/06/14 06:25:25;;;;;;;2.00;1.47;;;;;;;;;;5041782;28;20293;-63
2022/06/14 06:28:18;;;;;;;3.23;1.53;;;;;;;;;;5044277;28;20242;-63
2022/06/14 06:31:11;;;;;;;1.53;1.40;;;;;;;;;;5041367;28;20202;-61
2022/06/14 06:34:02;;;;;;;1.40;1.30;;;;;;;;;;5046717;28;20602;-61
2022/06/14 06:37:00;;;;;;;1.40;1.30;;;;;;;;;;5043527;28;20680;-61
2022/06/14 06:39:50;;;;;;;1.60;1.30;;;;;;;;;;5045531;28;20232;-61
2022/06/14 06:42:40;;;;;;;2.40;1.50;;;;;;;;;;5043073;28;20209;-61
2022/06/14 06:45:31;;;;;;;1.30;1.10;;;;;;;;;;5041629;28;20202;-61
2022/06/14 06:48:22;;;;;;;1.45;1.35;;;;;;;;;;5042259;28;20211;-61
2022/06/14 06:51:15;;;;;;;1.23;1.13;;;;;;;;;;5040519;28;20644;-61
2022/06/14 06:54:08;;;;;;;1.50;1.17;;;;;;;;;;5042640;28;20262;-61
2022/06/14 06:56:59;;;;;;;3.33;1.60;;;;;;;;;;5041399;28;20212;-62
2022/06/14 06:59:49;;;;;;;1.90;1.30;;;;;;;;;;5038867;28;20257;-62
2022/06/14 07:02:43;;;;;;;1.30;1.20;;;;;;;;;;5045187;28;20216;-62
2022/06/14 07:05:29;;;;;;;1.20;1.10;;;;;;;;;;5038887;28;20283;-60
2022/06/14 07:08:23;;;;;;;1.55;1.45;;;;;;;;;;5041982;28;20781;-61
2022/06/14 07:11:16;;;;;;;1.45;1.27;;;;;;;;;;5035291;28;20215;-59
2022/06/14 07:14:12;;;;;;;1.67;1.55;;;;;;;;;;5045922;28;20208;-60
2022/06/14 07:17:11;;;;;;;2.60;1.52;;;;;;;;;;5042708;28;20647;-60
2022/06/14 07:20:04;;;;;;;2.00;1.50;;;;;;;;;;5045785;28;20231;-60
2022/06/14 07:22:56;;;;;;;1.33;1.08;;;;;;;;;;5048650;28;20223;-60
2022/06/14 07:25:52;;;;;;;2.15;1.50;;;;;;;;;;5043256;28;20215;-60
2022/06/14 07:28:49;;;;;;;2.30;1.23;;;;;;;;;;5033637;28;20255;-59
2022/06/14 07:31:43;;;;;;;1.80;1.17;;;;;;;;;;5037667;28;20200;-60
2022/06/14 07:34:31;;;;;;;1.50;1.17;;;;;;;;;;5045168;28;20213;-60
2022/06/14 07:37:29;;;;;;;0.95;0.95;;;;;;;;;;5036488;28;20212;-60
2022/06/14 07:40:22;;;;;;;1.75;1.30;;;;;;;;;;5041850;28;20253;-60
2022/06/14 07:43:13;;;;;;;1.55;1.40;;;;;;;;;;5038382;28;20211;-61
2022/06/14 07:46:08;;;;;;;1.23;1.13;;;;;;;;;;5038729;28;20655;-61
2022/06/14 07:49:01;;;;;;;1.63;1.52;;;;;;;;;;5041667;28;20707;-61
2022/06/14 07:51:53;;;;;;;1.20;1.10;;;;;;;;;;5036707;28;20200;-60
2022/06/14 07:54:44;;;;;;;1.77;1.05;;;;;;;;;;5045294;28;20667;-60
2022/06/14 07:57:36;;;;;;;1.20;1.10;;;;;;;;;;5042288;28;20296;-61
2022/06/14 08:03:38;;;;;;;1.33;1.20;;;;;;;;;;5042664;28;20249;-61
2022/06/14 08:06:31;;;;;;;1.30;1.20;;;;;;;;;;5040234;28;20260;-61
2022/06/14 08:09:24;;;;;;;1.83;1.20;;;;;;;;;;5038811;28;20216;-61
2022/06/14 08:12:18;;;;;;;1.30;1.20;;;;;;;;;;5040433;28;20196;-61
2022/06/14 08:15:09;;;;;;;1.17;1.15;;;;;;;;;;5042383;28;20289;-61
2022/06/14 08:18:00;;;;;;;2.20;1.38;;;;;;;;;;5043910;28;20208;-61
2022/06/14 08:20:50;;;;;;;1.02;1.02;;;;;;;;;;5041487;28;20584;-60
2022/06/14 08:23:48;;;;;;;1.33;0.98;;;;;;;;;;5039053;28;20208;-61
2022/06/14 08:26:42;;;;;;;1.15;1.00;;;;;;;;;;5041163;28;20251;-61
2022/06/14 08:29:36;;;;;;;1.20;1.10;;;;;;;;;;5034248;28;20232;-61
2022/06/14 08:32:30;;;;;;;1.60;1.50;;;;;;;;;;5037203;28;20200;-61
2022/06/14 08:35:23;;;;;;;1.30;1.20;;;;;;;;;;5036491;28;20204;-61
2022/06/14 08:38:15;;;;;;;1.10;1.00;;;;;;;;;;5033503;28;20298;-60
2022/06/14 08:41:22;;;;;;;1.20;1.10;;;;;;;;;;5038217;28;20220;-61
2022/06/14 08:44:16;;;;;;;1.58;1.23;;;;;;;;;;5041745;28;20196;-60
2022/06/14 08:47:21;;;;;;;2.00;1.40;;;;;;;;;;5037624;28;20628;-61
2022/06/14 08:50:38;;;;;;;1.27;0.95;;;;;;;;;;5035069;28;20211;-61
2022/06/14 08:54:06;;;;;;;1.27;1.10;;;;;;;;;;5037294;28;20660;-61
2022/06/14 08:57:07;;;;;;;1.17;1.10;;;;;;;;;;5040586;28;20319;-60
2022/06/14 09:00:15;;;;;;;1.85;1.08;;;;;;;;;;5041269;28;20238;-60
2022/06/14 09:03:35;;;;;;;2.28;1.02;;;;;;;;;;5041565;28;20211;-60
2022/06/14 09:06:58;;;;;;;1.45;1.35;;;;;;;;;;5040864;28;20212;-60
2022/06/14 09:10:13;;;;;;;2.55;1.52;;;;;;;;;;5023256;28;20671;-62
2022/06/14 09:13:28;;;;;;;1.40;1.30;;;;;;;;;;5036586;28;20295;-62
2022/06/14 09:16:32;;;;;;;1.65;1.40;;;;;;;;;;5040298;28;20730;-62
2022/06/14 09:19:28;;;;;;;0.90;0.90;;;;;;;;;;5037313;28;20668;-62
2022/06/14 09:22:30;;;;;;;0.90;0.90;;;;;;;;;;5042554;28;20208;-62
2022/06/14 09:25:33;;;;;;;1.13;1.00;;;;;;;;;;5045951;28;20269;-62
2022/06/14 09:28:58;;;;;;;1.77;1.25;;;;;;;;;;5038746;28;20243;-62
2022/06/14 09:32:05;;;;;;;1.95;1.20;;;;;;;;;;5038441;28;20763;-62
2022/06/14 09:35:18;;;;;;;1.15;1.02;;;;;;;;;;5042916;28;20199;-62
2022/06/14 09:38:22;;;;;;;1.17;1.13;;;;;;;;;;5044028;28;20204;-61
2022/06/14 09:41:23;;;;;;;1.10;1.00;;;;;;;;;;5044932;28;20223;-61
2022/06/14 09:44:39;;;;;;;1.60;1.50;;;;;;;;;;5039739;28;20567;-61
2022/06/14 09:47:43;;;;;;;1.08;0.98;;;;;;;;;;5041339;28;20203;-61
2022/06/14 09:51:08;;;;;;;1.65;1.20;;;;;;;;;;5045315;28;20200;-62
2022/06/14 09:54:23;;;;;;;1.30;1.20;;;;;;;;;;5034441;28;20585;-62
2022/06/14 09:57:25;;;;;;;3.13;1.00;;;;;;;;;;5042584;28;20240;-62
2022/06/14 10:00:36;;;;;;;3.10;1.10;;;;;;;;;;5040180;28;20590;-62
2022/06/14 10:03:46;;;;;;;0.80;0.80;;;;;;;;;;5039214;28;20215;-62
2022/06/14 10:06:58;;;;;;;1.48;1.00;;;;;;;;;;5036751;28;20304;-62
2022/06/14 10:10:10;;;;;;;1.23;1.00;;;;;;;;;;5043900;28;20209;-62
2022/06/14 10:13:29;;;;;;;2.22;1.10;;;;;;;;;;5027364;28;20222;-62
2022/06/14 10:16:30;;;;;;;1.10;1.10;;;;;;;;;;5045833;28;20216;-62
2022/06/14 10:19:37;;;;;;;1.02;0.93;;;;;;;;;;5037908;28;20272;-62
2022/06/14 10:22:32;;;;;;;1.63;1.05;;;;;;;;;;5045851;28;20266;-62
2022/06/14 10:25:27;;;;;;;0.98;0.88;;;;;;;;;;5040450;28;20330;-62
2022/06/14 10:28:21;;;;;;;1.45;1.35;;;;;;;;;;5043446;28;20654;-62
2022/06/14 10:31:15;;;;;;;2.45;1.35;;;;;;;;;;5039871;28;20216;-62
2022/06/14 10:34:08;;;;;;;1.23;1.00;;;;;;;;;;5030839;28;20901;-62
2022/06/14 10:37:17;;;;;;;1.20;1.20;;;;;;;;;;5044370;28;20295;-62
2022/06/14 10:40:33;;;;;;;1.38;1.27;;;;;;;;;;5039547;28;20272;-62
2022/06/14 10:43:32;;;;;;;1.48;1.20;;;;;;;;;;5042868;28;20224;-62
2022/06/14 10:46:25;;;;;;;1.08;1.08;;;;;;;;;;5038943;28;20203;-62
2022/06/14 10:49:33;;;;;;;1.38;1.27;;;;;;;;;;5037540;28;20695;-62
2022/06/14 10:52:35;;;;;;;1.27;1.17;;;;;;;;;;5042925;28;20769;-62
2022/06/14 10:55:53;;;;;;;1.20;1.20;;;;;;;;;;5040608;28;20207;-62
2022/06/14 10:59:13;;;;;;;2.97;1.20;;;;;;;;;;5034610;28;20217;-62
2022/06/14 11:02:08;;;;;;;2.13;1.30;;;;;;;;;;5036015;28;20313;-62
2022/06/14 11:05:02;;;;;;;1.20;1.10;;;;;;;;;;5040877;28;20206;-61
2022/06/14 11:08:08;;;;;;;1.50;1.00;;;;;;;;;;5035222;28;20215;-61
2022/06/14 11:11:14;;;;;;;2.78;1.30;;;;;;;;;;5041651;28;20671;-62
2022/06/14 11:14:09;;;;;;;2.55;1.55;;;;;;;;;;5040221;28;20237;-61
2022/06/14 11:17:33;;;;;;;1.30;1.05;;;;;;;;;;5048423;28;20204;-62
2022/06/14 11:20:32;;;;;;;1.23;1.17;;;;;;;;;;5037965;28;20562;-62
2022/06/14 11:23:26;;;;;;;1.52;1.42;;;;;;;;;;5041648;28;20857;-62
2022/06/14 11:26:20;;;;;;;1.98;1.20;;;;;;;;;;5045863;28;20632;-62
2022/06/14 11:29:12;;;;;;;1.30;1.20;;;;;;;;;;5045414;28;20598;-62
2022/06/14 11:32:04;;;;;;;2.53;1.30;;;;;;;;;;5034720;28;20216;-62
2022/06/14 11:35:02;;;;;;;1.55;1.42;;;;;;;;;;5029805;28;20213;-62
2022/06/14 11:38:05;;;;;;;2.65;1.25;;;;;;;;;;5038799;28;20202;-62
2022/06/14 11:40:58;;;;;;;1.30;1.20;;;;;;;;;;5042443;28;20230;-62
2022/06/14 11:43:56;;;;;;;1.27;1.15;;;;;;;;;;5036298;28;20212;-62
2022/06/14 11:46:51;;;;;;;1.25;1.15;;;;;;;;;;5031921;28;20218;-62
2022/06/14 11:49:44;;;;;;;1.08;0.95;;;;;;;;;;5037152;28;20204;-62
2022/06/14 11:52:44;;;;;;;1.42;1.30;;;;;;;;;;5035301;28;20230;-62
2022/06/14 11:55:36;;;;;;;1.35;1.27;;;;;;;;;;5038016;28;20197;-62
2022/06/14 11:58:35;;;;;;;1.23;1.13;;;;;;;;;;5035226;28;20215;-61
2022/06/14 12:01:34;;;;;;;1.20;0.93;;;;;;;;;;5041773;28;20247;-62
2022/06/14 12:04:38;;;;;;;1.45;1.25;;;;;;;;;;5035756;28;20229;-62
2022/06/14 12:07:32;;;;;;;1.42;1.33;;;;;;;;;;5041362;28;20214;-62
2022/06/14 12:10:50;;;;;;;1.17;1.10;;;;;;;;;;5041263;28;20672;-61
2022/06/14 12:13:57;;;;;;;1.20;1.10;;;;;;;;;;5036316;28;20215;-62
2022/06/14 12:16:54;;;;;;;1.02;0.95;;;;;;;;;;5039245;28;20687;-62
2022/06/14 12:19:48;;;;;;;1.20;1.13;;;;;;;;;;5042511;28;20289;-62
2022/06/14 12:22:43;;;;;;;1.35;1.25;;;;;;;;;;5041882;28;20692;-62
2022/06/14 12:28:44;;;;;;;1.33;1.23;;;;;;;;;;5041778;28;20285;-62
2022/06/14 12:31:40;;;;;;;1.10;1.10;;;;;;;;;;5036558;28;20188;-62
2022/06/14 12:34:32;;;;;;;1.42;1.27;;;;;;;;;;5041317;28;20584;-62
2022/06/14 12:37:29;;;;;;;1.40;1.30;;;;;;;;;;5034668;28;20885;-63
2022/06/14 12:40:23;;;;;;;1.25;1.20;;;;;;;;;;5039191;28;20219;-62
2022/06/14 12:43:17;;;;;;;1.38;1.27;;;;;;;;;;5035575;28;20222;-62
2022/06/14 12:46:09;;;;;;;1.05;1.02;;;;;;;;;;5035566;28;20196;-62
2022/06/14 12:49:00;;;;;;;1.20;1.10;;;;;;;;;;5036951;28;20204;-62
2022/06/14 12:51:53;;;;;;;1.05;0.95;;;;;;;;;;5040851;28;20318;-62
2022/06/14 12:54:46;;;;;;;1.25;1.15;;;;;;;;;;5038065;28;20212;-62
2022/06/14 12:57:48;;;;;;;1.10;1.10;;;;;;;;;;5041908;28;20301;-62
2022/06/14 13:00:40;;;;;;;0.85;0.85;;;;;;;;;;5038317;28;20231;-61
2022/06/14 13:03:35;;;;;;;1.08;0.95;;;;;;;;;;5040835;28;20237;-62
2022/06/14 13:06:53;;;;;;;1.23;1.10;;;;;;;;;;5038733;28;20297;-62
2022/06/14 13:09:55;;;;;;;0.90;0.90;;;;;;;;;;5040319;28;20220;-62
2022/06/14 13:12:54;;;;;;;1.35;1.23;;;;;;;;;;5038684;28;20208;-61
2022/06/14 13:15:49;;;;;;;1.20;1.10;;;;;;;;;;5036048;28;20218;-62
2022/06/14 13:18:52;;;;;;;1.20;1.10;;;;;;;;;;5042250;28;20227;-62
2022/06/14 13:22:07;;;;;;;1.70;1.20;;;;;;;;;;5040196;28;20228;-62
2022/06/14 13:25:19;;;;;;;1.30;1.20;;;;;;;;;;5036123;28;20564;-62
2022/06/14 13:28:18;;;;;;;1.13;1.10;;;;;;;;;;5036755;28;20242;-62
2022/06/14 13:31:20;;;;;;;1.17;1.08;;;;;;;;;;5031794;28;20197;-62
2022/06/14 13:34:21;;;;;;;1.23;1.13;;;;;;;;;;5039328;28;20210;-62
2022/06/14 13:37:21;;;;;;;1.80;1.33;;;;;;;;;;5041494;28;20209;-62
2022/06/14 13:40:14;;;;;;;0.85;0.85;;;;;;;;;;5039395;28;20231;-62
2022/06/14 13:43:10;;;;;;;1.00;1.00;;;;;;;;;;5042107;28;20646;-61
2022/06/14 13:46:04;;;;;;;1.50;0.88;;;;;;;;;;5037188;28;20207;-62
2022/06/14 13:49:00;;;;;;;1.00;1.00;;;;;;;;;;5038120;28;20216;-62
2022/06/14 13:51:52;;;;;;;1.42;1.25;;;;;;;;;;5042231;28;20261;-61
2022/06/14 13:54:47;;;;;;;1.42;1.00;;;;;;;;;;5041827;28;20298;-62
2022/06/14 13:57:47;;;;;;;1.30;1.08;;;;;;;;;;5040928;28;20660;-62
2022/06/14 14:00:44;;;;;;;1.15;1.15;;;;;;;;;;5036254;28;20232;-61
2022/06/14 14:03:40;;;;;;;1.50;0.93;;;;;;;;;;5043362;28;20234;-62
2022/06/14 14:06:32;;;;;;;1.27;1.00;;;;;;;;;;5043575;28;20208;-61
2022/06/14 14:09:29;;;;;;;0.90;0.90;;;;;;;;;;5039790;28;20294;-62
2022/06/14 14:12:21;;;;;;;1.10;1.10;;;;;;;;;;5042064;28;20223;-62
2022/06/14 14:15:23;;;;;;;0.90;0.90;;;;;;;;;;5044059;28;20585;-62
2022/06/14 14:18:19;;;;;;;1.17;1.10;;;;;;;;;;5042452;28;20205;-62
2022/06/14 14:21:12;;;;;;;1.02;0.93;;;;;;;;;;5046452;28;20252;-62
2022/06/14 14:24:23;;;;;;;1.00;1.00;;;;;;;;;;5044513;28;20218;-62
2022/06/14 14:27:20;;;;;;;1.25;1.00;;;;;;;;;;5038945;28;20199;-62
2022/06/14 14:30:14;;;;;;;0.73;0.73;;;;;;;;;;5041442;28;20348;-61
2022/06/14 14:33:07;;;;;;;0.77;0.77;;;;;;;;;;5043097;28;20215;-62
2022/06/14 14:35:58;;;;;;;0.80;0.80;;;;;;;;;;5048991;28;20913;-62
2022/06/14 14:38:51;;;;;;;0.90;0.90;;;;;;;;;;5045438;28;20284;-62
2022/06/14 14:41:45;;;;;;;1.00;1.00;;;;;;;;;;5038384;28;20231;-61
2022/06/14 14:44:37;;;;;;;1.02;1.02;;;;;;;;;;5040513;28;20207;-62
2022/06/14 14:47:30;;;;;;;1.52;0.98;;;;;;;;;;5045744;28;20215;-62
2022/06/14 14:50:32;;;;;;;0.82;0.82;;;;;;;;;;5042617;28;20215;-61
2022/06/14 14:53:24;;;;;;;1.10;1.00;;;;;;;;;;5042556;28;20210;-62
2022/06/14 14:56:18;;;;;;;1.05;0.90;;;;;;;;;;5045856;28;20203;-62
2022/06/14 14:59:14;;;;;;;1.02;1.02;;;;;;;;;;5043568;28;20211;-61
2022/06/14 15:05:33;;;;;;;0.77;0.77;;;;;;;;;;5045758;28;20209;-62
2022/06/14 15:08:33;;;;;;;0.85;0.85;;;;;;;;;;5039260;28;20634;-62
2022/06/14 15:11:22;;;;;;;1.00;1.00;;;;;;;;;;5040730;28;20202;-61
2022/06/14 15:14:22;;;;;;;1.33;0.73;;;;;;;;;;5043723;28;20206;-61
2022/06/14 15:20:18;;;;;;;0.95;0.95;;;;;;;;;;5037850;28;20214;-61
2022/06/14 15:23:07;;;;;;;0.70;0.70;;;;;;;;;;5039617;28;20280;-61
2022/06/14 15:25:54;;;;;;;0.90;0.90;;;;;;;;;;5038562;28;20250;-61
2022/06/14 15:28:45;;;;;;;1.07;0.97;;;;;;;;;;5039696;28;20560;-62
2022/06/14 15:32:01;;;;;;;0.80;0.80;;;;;;;;;;5040833;28;20219;-62
2022/06/14 15:34:52;;;;;;;0.90;0.90;;;;;;;;;;5039164;28;20199;-62
2022/06/14 15:37:39;;;;;;;0.90;0.90;;;;;;;;;;5044462;28;20213;-63
2022/06/14 15:40:28;;;;;;;0.70;0.70;;;;;;;;;;5038652;28;20574;-61
2022/06/14 15:43:22;;;;;;;0.80;0.80;;;;;;;;;;5037622;28;20217;-62
2022/06/14 15:46:22;;;;;;;1.23;0.90;;;;;;;;;;5036028;28;20336;-62
2022/06/14 15:49:22;;;;;;;0.90;0.90;;;;;;;;;;5035071;28;20285;-61
2022/06/14 15:52:15;;;;;;;1.20;1.10;;;;;;;;;;5037210;28;20212;-63
2022/06/14 15:55:10;;;;;;;1.00;1.00;;;;;;;;;;5037265;28;20210;-62
2022/06/14 15:58:02;;;;;;;1.23;0.80;;;;;;;;;;5039643;28;20765;-62
2022/06/14 16:00:56;;;;;;;0.87;0.87;;;;;;;;;;5037635;28;20244;-61
2022/06/14 16:03:48;;;;;;;0.80;0.80;;;;;;;;;;5041631;28;20899;-62
2022/06/14 16:06:39;;;;;;;0.83;0.83;;;;;;;;;;5045400;28;20279;-62
2022/06/14 16:09:30;;;;;;;0.77;0.77;;;;;;;;;;5041082;28;20215;-61
2022/06/14 16:12:23;;;;;;;0.60;0.60;;;;;;;;;;5042496;28;20235;-62
2022/06/14 16:15:24;;;;;;;0.63;0.63;;;;;;;;;;5035986;28;20288;-61
2022/06/14 16:18:35;;;;;;;0.63;0.63;;;;;;;;;;5042248;28;20737;-62
2022/06/14 16:21:26;;;;;;;1.30;0.80;;;;;;;;;;5037835;28;20207;-61
2022/06/14 16:24:15;;;;;;;0.90;0.90;;;;;;;;;;5039966;28;20212;-62
2022/06/14 16:27:15;;;;;;;0.60;0.60;;;;;;;;;;5038476;28;20234;-61
2022/06/14 16:30:09;;;;;;;1.20;0.97;;;;;;;;;;5041291;28;20323;-61
2022/06/14 16:33:08;;;;;;;0.97;0.97;;;;;;;;;;5036460;28;20816;-62
2022/06/14 16:36:00;;;;;;;0.90;0.90;;;;;;;;;;5041403;28;20201;-61
2022/06/14 16:38:53;;;;;;;0.83;0.80;;;;;;;;;;5039704;28;20233;-61
2022/06/14 16:41:56;;;;;;;0.83;0.83;;;;;;;;;;5042230;28;20215;-61
2022/06/14 16:44:49;;;;;;;0.80;0.80;;;;;;;;;;5036259;28;20554;-61
2022/06/14 16:47:43;;;;;;;0.67;0.67;;;;;;;;;;5032719;28;20216;-62
2022/06/14 16:50:38;;;;;;;1.97;1.00;;;;;;;;;;5038444;28;20286;-62
2022/06/14 16:53:32;;;;;;;0.60;0.60;;;;;;;;;;5037122;28;20735;-62
2022/06/14 16:56:25;;;;;;;0.97;0.97;;;;;;;;;;5042954;28;20210;-62
2022/06/14 16:59:24;;;;;;;0.90;0.90;;;;;;;;;;5041900;28;20194;-61
2022/06/14 17:02:31;;;;;;;0.80;0.80;;;;;;;;;;5038043;28;20236;-62
2022/06/14 17:05:23;;;;;;;0.70;0.67;;;;;;;;;;5035628;28;20214;-62
2022/06/14 17:08:19;;;;;;;0.77;0.77;;;;;;;;;;5038841;28;20541;-61
2022/06/14 17:11:13;;;;;;;0.87;0.80;;;;;;;;;;5036567;28;20589;-62
2022/06/14 17:14:05;;;;;;;0.77;0.77;;;;;;;;;;5034218;28;20798;-63
2022/06/14 17:17:00;;;;;;;1.07;1.00;;;;;;;;;;5038478;28;20672;-64
2022/06/14 17:19:54;;;;;;;0.60;0.60;;;;;;;;;;5041102;28;20265;-62
2022/06/14 17:22:46;;;;;;;1.40;0.60;;;;;;;;;;5038468;28;20261;-62
2022/06/14 17:32:01;;;;;;;1.27;0.63;;;;;;;;;;5042216;28;20230;-61
2022/06/14 17:34:52;;;;;;;0.90;0.70;;;;;;;;;;5037459;28;20282;-61
2022/06/14 17:37:46;;;;;;;0.60;0.60;;;;;;;;;;5040756;28;20218;-62
2022/06/14 17:40:38;;;;;;;0.83;0.70;;;;;;;;;;5036535;28;20221;-62
2022/06/14 17:43:30;;;;;;;0.90;0.70;;;;;;;;;;5037658;28;20233;-61
2022/06/14 17:46:20;;;;;;;0.60;0.60;;;;;;;;;;5047831;28;20199;-62
2022/06/14 17:49:15;;;;;;;0.87;0.80;;;;;;;;;;5045202;28;20217;-62
2022/06/14 17:52:08;;;;;;;0.63;0.63;;;;;;;;;;5041063;28;20222;-62
2022/06/14 17:55:06;;;;;;;0.70;0.70;;;;;;;;;;5043965;28;20302;-62
2022/06/14 17:58:03;;;;;;;0.93;0.70;;;;;;;;;;5048882;28;20211;-61
2022/06/14 18:00:56;;;;;;;1.00;0.70;;;;;;;;;;5042905;28;20705;-61
2022/06/14 18:04:05;;;;;;;1.07;0.70;;;;;;;;;;5044620;28;20642;-61